Estación de Peumo Norte

Ultimos registro cada 15 minutos 62
Estación Fecha / Hora Temperatura Humedad Lluvia Velocidad Dirección Radiación Presion
62 Peumo Norte 06-05-2026 15:15 15,3 94,9 0 1 333 61,9 1004,5
61 Peumo Norte 06-05-2026 15:00 15,2 95,4 0 1 324 73,1 1004,3
60 Peumo Norte 06-05-2026 14:45 15,2 96,1 0 1,5 331 189,4 1003,9
59 Peumo Norte 06-05-2026 14:30 14,9 96,3 0 2 321 109,4 1003,7
58 Peumo Norte 06-05-2026 14:15 15 96,1 0,2 2 312 135,6 1003,6
57 Peumo Norte 06-05-2026 14:00 15,1 96,1 0 1,5 307 114,4 1003,4
56 Peumo Norte 06-05-2026 13:45 15,2 95,6 1,2 1,5 320 90,6 1003,4
55 Peumo Norte 06-05-2026 13:30 15,1 95,1 0,2 2,5 340 40,6 1003,4
54 Peumo Norte 06-05-2026 13:15 15 94,7 0,6 2,5 340 104,4 1003,2
53 Peumo Norte 06-05-2026 13:00 15,1 94,1 0,2 3 334 28,1 1003,1
52 Peumo Norte 06-05-2026 12:45 15,2 93,4 0 3 345 55,6 1002,9
51 Peumo Norte 06-05-2026 12:30 15,4 93 0 3 351 39,4 1002,6
50 Peumo Norte 06-05-2026 12:15 15,4 93,9 0 3 350 118,1 1002,7
49 Peumo Norte 06-05-2026 12:00 15,3 94,3 0 2,5 341 66,9 1002,4
48 Peumo Norte 06-05-2026 11:45 15,3 94,9 0,2 2,5 343 80,6 1002,4
47 Peumo Norte 06-05-2026 11:30 15,7 95,9 0 3 351 168,1 1002,1
46 Peumo Norte 06-05-2026 11:15 15,3 97,3 0 3 344 181,9 1001,8
45 Peumo Norte 06-05-2026 11:00 14,6 98,2 0,2 2,5 343 231,9 1001,8
44 Peumo Norte 06-05-2026 10:45 14,5 98,7 0,2 2,5 341 175,6 1001,6
43 Peumo Norte 06-05-2026 10:30 14,2 98,8 0 1,5 327 111,9 1001,8
42 Peumo Norte 06-05-2026 10:15 14,5 99,1 0,2 1 275 81,9 1001,6
41 Peumo Norte 06-05-2026 10:00 13,4 99,2 1,6 0 208 121,9 1000,9
40 Peumo Norte 06-05-2026 09:45 12,9 98,9 0,2 0 268 9,4 1000,7
39 Peumo Norte 06-05-2026 09:30 12,5 99 0 0,5 202 36,9 1001,1
38 Peumo Norte 06-05-2026 09:15 12,1 98,9 0 0 164 113,1 1001,1
37 Peumo Norte 06-05-2026 09:00 11,3 99 0,6 0 131 113,1 1001
36 Peumo Norte 06-05-2026 08:45 10,9 99 0 0 119 15,6 1001,4
35 Peumo Norte 06-05-2026 08:30 10,8 99 0 0 178 8,1 1001,6
34 Peumo Norte 06-05-2026 08:15 10,4 99 0,2 0 170 4,4 1001,4
33 Peumo Norte 06-05-2026 08:00 10,2 99 0,6 0,5 79 0,6 1001,3
32 Peumo Norte 06-05-2026 07:45 9,7 98,8 0 0 10 1,9 1001,4
31 Peumo Norte 06-05-2026 07:30 9,6 98,8 0 0 27 0,6 1001,3
30 Peumo Norte 06-05-2026 07:15 9,5 98,8 0 0 160 0,6 1000,9
29 Peumo Norte 06-05-2026 07:00 9,3 98,7 0 0 104 0,6 1000,4
28 Peumo Norte 06-05-2026 06:45 9,3 98,7 0 0 119 0,6 1000,1
27 Peumo Norte 06-05-2026 06:30 9,3 98,6 0 0 102 0,6 1000,1
26 Peumo Norte 06-05-2026 06:15 9,1 98,6 0 0 114 0,6 1000,2
25 Peumo Norte 06-05-2026 06:00 8,9 98,4 0 0 128 0,6 1000,2
24 Peumo Norte 06-05-2026 05:45 8,9 98,3 0 0 121 0,6 1000,2
23 Peumo Norte 06-05-2026 05:30 9,1 98,3 0 0 108 0,6 1000
22 Peumo Norte 06-05-2026 05:15 9 98,1 0 0 102 0,6 1000
21 Peumo Norte 06-05-2026 05:00 9,3 97,9 0 0 111 0,6 999,8
20 Peumo Norte 06-05-2026 04:45 9,3 97,8 0 0 110 0,6 999,8
19 Peumo Norte 06-05-2026 04:30 9,2 97,8 0 0 112 0,6 999,7
18 Peumo Norte 06-05-2026 04:15 9,5 97,5 0 0 112 0,6 999,8
17 Peumo Norte 06-05-2026 04:00 9,9 97,4 0 0 97 0,6 1000
16 Peumo Norte 06-05-2026 03:45 10,1 97,1 0 0 110 0,6 1000,2
15 Peumo Norte 06-05-2026 03:30 10 97 0 0 110 0,6 1000,3
14 Peumo Norte 06-05-2026 03:15 10 96,9 0 0 110 0,6 1000,4
13 Peumo Norte 06-05-2026 03:00 9,9 96,9 0 0 110 0,6 1000,4
12 Peumo Norte 06-05-2026 02:45 9,1 96,8 0 0 97 0,6 1000,2
11 Peumo Norte 06-05-2026 02:30 8,9 96,4 0 0 97 0,6 1000,2
10 Peumo Norte 06-05-2026 02:15 9,1 96,2 0 0 97 0,6 1000,4
9 Peumo Norte 06-05-2026 02:00 9,5 96,5 0 0 97 0,6 1000,1
8 Peumo Norte 06-05-2026 01:45 10,2 95,7 0 0 84 0,6 1000,1
7 Peumo Norte 06-05-2026 01:30 10,5 95,7 0 0 86 0,6 1000,1
6 Peumo Norte 06-05-2026 01:15 11,2 95,5 0 0 91 0,6 1000,4
5 Peumo Norte 06-05-2026 01:00 11,6 95,5 0 0 157 0,6 1000,5
4 Peumo Norte 06-05-2026 00:45 11,8 95,3 0 0 253 0,6 1000,8
3 Peumo Norte 06-05-2026 00:30 11,5 95,1 0 0 253 0,6 1001
2 Peumo Norte 06-05-2026 00:15 11,3 94,5 0 0 253 0,6 1001
1 Peumo Norte 06-05-2026 00:00 11,3 94,7 0 0 253 0,6 1000,7